Beechwood, Michigan
Current Conditions -  °F | °C
As of 10:15 AM on Monday 24 Nov 2014 (Local Time) from KLNL Reporting Station
Haze Haze  
Wind Chill: -5°   Ceiling: 800
Heat Index:   Visibility: 3mi
Dew Point:   Wind: 14mph
Humidity: 100%   Direction: 350°N
Pressure: 29.12"   Gusts: NA
Location:  46.2163°N, 88.7676°W
Report Text: KLNL 241615Z AUTO 35012KT 3SM BR BKN008 BKN014 OVC031 00/00 A2912 RMK AO2 T00030003
Loading
Personal Weather Stations






























Interactive Weather Map New forecast layout! Learn more

10-Day Weather Forecast

Advertisements
Track Severe Weather on mobile